sensor_id;sensor_type;location;lat;lon;timestamp;pressure;altitude;pressure_sealevel;temperature;humidity
10946;BME280;5525;42.648;23.368;2023-02-01T00:01:39;94792.28;;;1.12;100.00
10946;BME280;5525;42.648;23.368;2023-02-01T00:04:09;94768.00;;;0.88;100.00
10946;BME280;5525;42.648;23.368;2023-02-01T00:06:37;94782.69;;;1.11;100.00
10946;BME280;5525;42.648;23.368;2023-02-01T00:09:05;94762.16;;;0.91;100.00
10946;BME280;5525;42.648;23.368;2023-02-01T00:11:33;94800.25;;;1.12;100.00
10946;BME280;5525;42.648;23.368;2023-02-01T00:14:01;94783.72;;;1.05;100.00
10946;BME280;5525;42.648;23.368;2023-02-01T00:16:30;94792.53;;;1.05;100.00
10946;BME280;5525;42.648;23.368;2023-02-01T00:19:02;94756.88;;;0.96;100.00
10946;BME280;5525;42.648;23.368;2023-02-01T00:21:31;94785.06;;;1.02;100.00
10946;BME280;5525;42.648;23.368;2023-02-01T00:23:58;94792.28;;;1.12;100.00
10946;BME280;5525;42.648;23.368;2023-02-01T00:26:30;94796.53;;;1.13;100.00
10946;BME280;5525;42.648;23.368;2023-02-01T00:28:57;94785.88;;;1.03;100.00
10946;BME280;5525;42.648;23.368;2023-02-01T00:31:24;94748.59;;;0.88;100.00
10946;BME280;5525;42.648;23.368;2023-02-01T00:33:51;94773.09;;;1.05;100.00
10946;BME280;5525;42.648;23.368;2023-02-01T00:36:19;94768.84;;;0.94;100.00
10946;BME280;5525;42.648;23.368;2023-02-01T00:38:46;94738.50;;;0.80;100.00
10946;BME280;5525;42.648;23.368;2023-02-01T00:41:15;94732.63;;;0.73;100.00
10946;BME280;5525;42.648;23.368;2023-02-01T00:43:43;94776.28;;;0.92;100.00
10946;BME280;5525;42.648;23.368;2023-02-01T00:46:12;94760.31;;;0.92;100.00
10946;BME280;5525;42.648;23.368;2023-02-01T00:48:40;94767.22;;;0.83;100.00
10946;BME280;5525;42.648;23.368;2023-02-01T00:51:09;94768.25;;;0.77;100.00
10946;BME280;5525;42.648;23.368;2023-02-01T00:53:38;94767.41;;;0.71;100.00
10946;BME280;5525;42.648;23.368;2023-02-01T00:56:06;94754.88;;;0.57;100.00
10946;BME280;5525;42.648;23.368;2023-02-01T00:58:33;94741.88;;;0.55;100.00
10946;BME280;5525;42.648;23.368;2023-02-01T01:01:02;94731.66;;;0.37;100.00
10946;BME280;5525;42.648;23.368;2023-02-01T01:03:30;94764.16;;;0.49;100.00
10946;BME280;5525;42.648;23.368;2023-02-01T01:05:59;94719.63;;;0.15;100.00
10946;BME280;5525;42.648;23.368;2023-02-01T01:08:27;94749.47;;;0.42;100.00
10946;BME280;5525;42.648;23.368;2023-02-01T01:10:55;94765.50;;;0.57;100.00
10946;BME280;5525;42.648;23.368;2023-02-01T01:13:22;94744.53;;;0.65;100.00
10946;BME280;5525;42.648;23.368;2023-02-01T01:15:50;94732.84;;;0.61;100.00
10946;BME280;5525;42.648;23.368;2023-02-01T01:18:18;94765.84;;;0.75;100.00
10946;BME280;5525;42.648;23.368;2023-02-01T01:20:48;94746.13;;;0.66;100.00
10946;BME280;5525;42.648;23.368;2023-02-01T01:23:19;94770.63;;;0.83;100.00
10946;BME280;5525;42.648;23.368;2023-02-01T01:25:57;94748.84;;;0.86;100.00
10946;BME280;5525;42.648;23.368;2023-02-01T01:28:25;94760.06;;;0.93;100.00
10946;BME280;5525;42.648;23.368;2023-02-01T01:30:58;94742.75;;;0.86;100.00
10946;BME280;5525;42.648;23.368;2023-02-01T01:33:27;94750.75;;;0.96;100.00
10946;BME280;5525;42.648;23.368;2023-02-01T01:35:56;94757.69;;;0.97;100.00
10946;BME280;5525;42.648;23.368;2023-02-01T01:38:28;94766.19;;;0.94;100.00
10946;BME280;5525;42.648;23.368;2023-02-01T01:41:05;94760.59;;;0.95;100.00
10946;BME280;5525;42.648;23.368;2023-02-01T01:43:49;94761.63;;;0.89;100.00
10946;BME280;5525;42.648;23.368;2023-02-01T01:46:21;94767.47;;;0.91;100.00
10946;BME280;5525;42.648;23.368;2023-02-01T01:48:51;94771.75;;;0.87;100.00
10946;BME280;5525;42.648;23.368;2023-02-01T01:51:21;94739.72;;;0.57;100.00
10946;BME280;5525;42.648;23.368;2023-02-01T01:53:55;94765.34;;;0.78;100.00
10946;BME280;5525;42.648;23.368;2023-02-01T01:56:26;94778.63;;;0.78;100.00
10946;BME280;5525;42.648;23.368;2023-02-01T01:58:55;94765.81;;;0.65;100.00
10946;BME280;5525;42.648;23.368;2023-02-01T02:01:22;94744.50;;;0.50;100.00
10946;BME280;5525;42.648;23.368;2023-02-01T02:03:50;94771.88;;;0.56;100.00
10946;BME280;5525;42.648;23.368;2023-02-01T02:06:32;94763.53;;;0.37;100.00
10946;BME280;5525;42.648;23.368;2023-02-01T02:09:03;94772.28;;;0.28;100.00
10946;BME280;5525;42.648;23.368;2023-02-01T02:11:32;94762.88;;;0.10;100.00
10946;BME280;5525;42.648;23.368;2023-02-01T02:14:00;94751.19;;;0.11;100.00
10946;BME280;5525;42.648;23.368;2023-02-01T02:16:43;94748.97;;;-0.07;100.00
10946;BME280;5525;42.648;23.368;2023-02-01T02:22:39;94752.41;;;-0.07;100.00
10946;BME280;5525;42.648;23.368;2023-02-01T02:31:40;94750.97;;;-0.24;100.00
10946;BME280;5525;42.648;23.368;2023-02-01T02:34:19;94753.31;;;-0.28;100.00
10946;BME280;5525;42.648;23.368;2023-02-01T02:36:55;94752.59;;;-0.18;100.00
10946;BME280;5525;42.648;23.368;2023-02-01T02:39:36;94760.81;;;-0.20;100.00
10946;BME280;5525;42.648;23.368;2023-02-01T02:42:13;94736.06;;;-0.30;100.00
10946;BME280;5525;42.648;23.368;2023-02-01T02:45:03;94761.97;;;-0.06;100.00
10946;BME280;5525;42.648;23.368;2023-02-01T02:47:54;94753.75;;;-0.04;100.00
10946;BME280;5525;42.648;23.368;2023-02-01T02:50:27;94760.47;;;0.09;100.00
10946;BME280;5525;42.648;23.368;2023-02-01T02:53:16;94737.13;;;0.11;100.00
10946;BME280;5525;42.648;23.368;2023-02-01T02:56:03;94737.13;;;0.16;100.00
10946;BME280;5525;42.648;23.368;2023-02-01T02:58:50;94741.97;;;0.24;100.00
10946;BME280;5525;42.648;23.368;2023-02-01T03:01:36;94750.78;;;0.29;100.00
10946;BME280;5525;42.648;23.368;2023-02-01T03:04:26;94743.59;;;0.30;100.00
10946;BME280;5525;42.648;23.368;2023-02-01T03:06:55;94713.75;;;0.13;100.00
10946;BME280;5525;42.648;23.368;2023-02-01T03:09:29;94751.34;;;0.36;100.00
10946;BME280;5525;42.648;23.368;2023-02-01T03:12:02;94740.69;;;0.31;100.00
10946;BME280;5525;42.648;23.368;2023-02-01T03:14:51;94771.34;;;0.54;100.00
10946;BME280;5525;42.648;23.368;2023-02-01T03:17:33;94755.38;;;0.49;100.00
10946;BME280;5525;42.648;23.368;2023-02-01T03:20:04;94737.28;;;0.41;100.00
10946;BME280;5525;42.648;23.368;2023-02-01T03:22:37;94785.44;;;0.59;100.00
10946;BME280;5525;42.648;23.368;2023-02-01T03:25:10;94783.84;;;0.58;100.00
10946;BME280;5525;42.648;23.368;2023-02-01T03:27:48;94762.31;;;0.55;100.00
10946;BME280;5525;42.648;23.368;2023-02-01T03:30:21;94771.06;;;0.50;100.00
10946;BME280;5525;42.648;23.368;2023-02-01T03:32:50;94783.56;;;0.55;100.00
10946;BME280;5525;42.648;23.368;2023-02-01T03:35:32;94787.81;;;0.51;100.00
10946;BME280;5525;42.648;23.368;2023-02-01T03:38:09;94737.47;;;0.24;100.00
10946;BME280;5525;42.648;23.368;2023-02-01T03:40:41;94772.56;;;0.36;100.00
10946;BME280;5525;42.648;23.368;2023-02-01T03:43:14;94786.16;;;0.40;100.00
10946;BME280;5525;42.648;23.368;2023-02-01T03:45:52;94771.03;;;0.45;100.00
10946;BME280;5525;42.648;23.368;2023-02-01T03:48:21;94780.34;;;0.53;100.00
10946;BME280;5525;42.648;23.368;2023-02-01T03:50:52;94755.88;;;0.41;100.00
10946;BME280;5525;42.648;23.368;2023-02-01T03:53:23;94772.16;;;0.59;100.00
10946;BME280;5525;42.648;23.368;2023-02-01T03:55:52;94779.06;;;0.55;100.00
10946;BME280;5525;42.648;23.368;2023-02-01T03:58:21;94785.16;;;0.51;100.00
10946;BME280;5525;42.648;23.368;2023-02-01T04:00:51;94756.56;;;0.21;100.00
10946;BME280;5525;42.648;23.368;2023-02-01T04:03:18;94752.09;;;0.32;100.00
10946;BME280;5525;42.648;23.368;2023-02-01T04:05:50;94775.50;;;0.35;100.00
10946;BME280;5525;42.648;23.368;2023-02-01T04:08:20;94775.72;;;0.28;100.00
10946;BME280;5525;42.648;23.368;2023-02-01T04:10:49;94739.56;;;0.22;100.00
10946;BME280;5525;42.648;23.368;2023-02-01T04:13:16;94776.13;;;0.57;100.00
10946;BME280;5525;42.648;23.368;2023-02-01T04:15:43;94779.34;;;0.64;100.00
10946;BME280;5525;42.648;23.368;2023-02-01T04:18:15;94769.81;;;0.73;100.00
10946;BME280;5525;42.648;23.368;2023-02-01T04:20:43;94773.31;;;0.78;100.00
10946;BME280;5525;42.648;23.368;2023-02-01T04:23:10;94776.75;;;0.79;100.00
10946;BME280;5525;42.648;23.368;2023-02-01T04:25:38;94769.81;;;0.73;100.00
10946;BME280;5525;42.648;23.368;2023-02-01T04:28:06;94771.44;;;0.84;100.00
10946;BME280;5525;42.648;23.368;2023-02-01T04:30:35;94780.50;;;0.88;100.00
10946;BME280;5525;42.648;23.368;2023-02-01T04:33:04;94778.91;;;0.87;100.00
10946;BME280;5525;42.648;23.368;2023-02-01T04:35:31;94784.75;;;0.84;100.00
10946;BME280;5525;42.648;23.368;2023-02-01T04:37:58;94773.81;;;0.80;100.00
10946;BME280;5525;42.648;23.368;2023-02-01T04:40:25;94779.97;;;0.91;100.00
10946;BME280;5525;42.648;23.368;2023-02-01T04:42:52;94787.16;;;0.90;100.00
10946;BME280;5525;42.648;23.368;2023-02-01T04:45:21;94781.00;;;0.85;100.00
10946;BME280;5525;42.648;23.368;2023-02-01T04:47:49;94791.13;;;0.88;100.00
10946;BME280;5525;42.648;23.368;2023-02-01T04:50:17;94779.44;;;0.89;100.00
10946;BME280;5525;42.648;23.368;2023-02-01T04:52:43;94795.41;;;0.94;100.00
10946;BME280;5525;42.648;23.368;2023-02-01T04:55:13;94786.34;;;0.90;100.00
10946;BME280;5525;42.648;23.368;2023-02-01T04:57:44;94787.19;;;0.95;100.00
10946;BME280;5525;42.648;23.368;2023-02-01T05:00:14;94789.81;;;0.90;100.00
10946;BME280;5525;42.648;23.368;2023-02-01T05:02:43;94793.81;;;0.93;100.00
10946;BME280;5525;42.648;23.368;2023-02-01T05:05:13;94801.25;;;0.96;100.00
10946;BME280;5525;42.648;23.368;2023-02-01T05:07:45;94782.09;;;0.84;100.00
10946;BME280;5525;42.648;23.368;2023-02-01T05:10:13;94818.31;;;1.00;100.00
10946;BME280;5525;42.648;23.368;2023-02-01T05:12:40;94810.56;;;0.93;100.00
10946;BME280;5525;42.648;23.368;2023-02-01T05:15:26;94824.94;;;1.02;100.00
10946;BME280;5525;42.648;23.368;2023-02-01T05:17:55;94813.75;;;1.00;100.00
10946;BME280;5525;42.648;23.368;2023-02-01T05:20:23;94806.03;;;0.99;100.00
10946;BME280;5525;42.648;23.368;2023-02-01T05:22:51;94820.97;;;1.10;100.00
10946;BME280;5525;42.648;23.368;2023-02-01T05:25:18;94817.25;;;1.11;100.00
10946;BME280;5525;42.648;23.368;2023-02-01T05:27:45;94808.22;;;1.12;100.00
10946;BME280;5525;42.648;23.368;2023-02-01T05:30:13;94802.09;;;1.06;100.00
10946;BME280;5525;42.648;23.368;2023-02-01T05:32:41;94785.03;;;0.97;100.00
10946;BME280;5525;42.648;23.368;2023-02-01T05:35:09;94817.28;;;1.21;100.00
10946;BME280;5525;42.648;23.368;2023-02-01T05:37:36;94789.31;;;0.98;100.00
10946;BME280;5525;42.648;23.368;2023-02-01T05:40:05;94825.28;;;1.26;100.00
10946;BME280;5525;42.648;23.368;2023-02-01T05:42:33;94796.53;;;1.18;100.00
10946;BME280;5525;42.648;23.368;2023-02-01T05:45:00;94811.22;;;1.30;100.00
10946;BME280;5525;42.648;23.368;2023-02-01T05:47:27;94815.22;;;1.38;100.00
10946;BME280;5525;42.648;23.368;2023-02-01T05:49:54;94824.50;;;1.35;100.00
10946;BME280;5525;42.648;23.368;2023-02-01T05:52:22;94820.78;;;1.36;100.00
10946;BME280;5525;42.648;23.368;2023-02-01T05:54:49;94804.84;;;1.41;100.00
10946;BME280;5525;42.648;23.368;2023-02-01T05:57:28;94814.41;;;1.42;100.00
10946;BME280;5525;42.648;23.368;2023-02-01T06:00:00;94809.09;;;1.37;100.00
10946;BME280;5525;42.648;23.368;2023-02-01T06:02:27;94817.34;;;1.51;100.00
10946;BME280;5525;42.648;23.368;2023-02-01T06:04:55;94817.88;;;1.48;100.00
10946;BME280;5525;42.648;23.368;2023-02-01T06:07:24;94825.09;;;1.57;100.00
10946;BME280;5525;42.648;23.368;2023-02-01T06:09:57;94831.19;;;1.63;100.00
10946;BME280;5525;42.648;23.368;2023-02-01T06:12:41;94826.41;;;1.55;100.00
10946;BME280;5525;42.648;23.368;2023-02-01T06:15:09;94833.88;;;1.58;100.00
10946;BME280;5525;42.648;23.368;2023-02-01T06:17:36;94832.81;;;1.64;100.00
10946;BME280;5525;42.648;23.368;2023-02-01T06:20:06;94836.03;;;1.66;100.00
10946;BME280;5525;42.648;23.368;2023-02-01T06:22:37;94805.13;;;1.50;100.00
10946;BME280;5525;42.648;23.368;2023-02-01T06:25:07;94826.41;;;1.60;100.00
10946;BME280;5525;42.648;23.368;2023-02-01T06:27:34;94828.28;;;1.69;100.00
10946;BME280;5525;42.648;23.368;2023-02-01T06:30:05;94797.66;;;1.47;100.00
10946;BME280;5525;42.648;23.368;2023-02-01T06:32:34;94838.69;;;1.86;100.00
10946;BME280;5525;42.648;23.368;2023-02-01T06:35:01;94836.53;;;1.83;100.00
10946;BME280;5525;42.648;23.368;2023-02-01T06:37:28;94829.91;;;1.91;100.00
10946;BME280;5525;42.648;23.368;2023-02-01T06:39:58;94829.38;;;1.89;100.00
10946;BME280;5525;42.648;23.368;2023-02-01T06:42:26;94836.03;;;1.91;100.00
10946;BME280;5525;42.648;23.368;2023-02-01T06:44:54;94832.56;;;1.96;100.00
10946;BME280;5525;42.648;23.368;2023-02-01T06:47:22;94835.78;;;2.03;100.00
10946;BME280;5525;42.648;23.368;2023-02-01T06:49:50;94837.63;;;2.07;100.00
10946;BME280;5525;42.648;23.368;2023-02-01T06:52:18;94849.88;;;2.18;100.00
10946;BME280;5525;42.648;23.368;2023-02-01T06:54:49;94847.19;;;2.23;100.00
10946;BME280;5525;42.648;23.368;2023-02-01T06:57:18;94849.63;;;2.20;100.00
10946;BME280;5525;42.648;23.368;2023-02-01T06:59:46;94852.00;;;2.16;100.00
10946;BME280;5525;42.648;23.368;2023-02-01T07:02:13;94851.75;;;2.18;100.00
10946;BME280;5525;42.648;23.368;2023-02-01T07:04:43;94863.44;;;2.22;100.00
10946;BME280;5525;42.648;23.368;2023-02-01T07:07:15;94865.31;;;2.31;100.00
10946;BME280;5525;42.648;23.368;2023-02-01T07:09:56;94849.63;;;2.20;100.00
10946;BME280;5525;42.648;23.368;2023-02-01T07:12:37;94844.28;;;2.15;100.00
10946;BME280;5525;42.648;23.368;2023-02-01T07:15:08;94869.06;;;2.25;100.00
10946;BME280;5525;42.648;23.368;2023-02-01T07:17:39;94866.13;;;2.32;100.00
10946;BME280;5525;42.648;23.368;2023-02-01T07:20:09;94868.25;;;2.25;100.00
10946;BME280;5525;42.648;23.368;2023-02-01T07:22:42;94880.50;;;2.36;100.00
10946;BME280;5525;42.648;23.368;2023-02-01T07:25:17;94854.13;;;2.19;100.00
10946;BME280;5525;42.648;23.368;2023-02-01T07:27:49;94887.69;;;2.40;100.00
10946;BME280;5525;42.648;23.368;2023-02-01T07:30:19;94866.38;;;2.25;100.00
10946;BME280;5525;42.648;23.368;2023-02-01T07:32:48;94887.69;;;2.40;100.00
10946;BME280;5525;42.648;23.368;2023-02-01T07:35:19;94891.94;;;2.51;100.00
10946;BME280;5525;42.648;23.368;2023-02-01T07:37:47;94888.47;;;2.61;100.00
10946;BME280;5525;42.648;23.368;2023-02-01T07:40:23;94900.47;;;2.68;100.00
10946;BME280;5525;42.648;23.368;2023-02-01T07:42:56;94859.16;;;2.56;100.00
10946;BME280;5525;42.648;23.368;2023-02-01T07:45:25;94867.44;;;2.54;100.00
10946;BME280;5525;42.648;23.368;2023-02-01T07:47:56;94900.47;;;2.73;100.00
10946;BME280;5525;42.648;23.368;2023-02-01T07:50:26;94907.91;;;2.71;100.00
10946;BME280;5525;42.648;23.368;2023-02-01T07:52:58;94906.84;;;2.72;100.00
10946;BME280;5525;42.648;23.368;2023-02-01T07:55:28;94871.16;;;2.48;100.00
10946;BME280;5525;42.648;23.368;2023-02-01T07:57:59;94868.78;;;2.42;100.00
10946;BME280;5525;42.648;23.368;2023-02-01T08:00:31;94904.72;;;2.69;100.00
10946;BME280;5525;42.648;23.368;2023-02-01T08:03:18;94920.44;;;2.76;100.00
10946;BME280;5525;42.648;23.368;2023-02-01T08:05:48;94921.50;;;2.80;100.00
10946;BME280;5525;42.648;23.368;2023-02-01T08:08:22;94924.44;;;2.88;100.00
10946;BME280;5525;42.648;23.368;2023-02-01T08:11:07;94929.72;;;2.98;100.00
10946;BME280;5525;42.648;23.368;2023-02-01T08:13:40;94910.78;;;3.00;100.00
10946;BME280;5525;42.648;23.368;2023-02-01T08:16:13;94914.25;;;3.10;100.00
10946;BME280;5525;42.648;23.368;2023-02-01T08:18:47;94929.44;;;3.15;100.00
10946;BME280;5525;42.648;23.368;2023-02-01T08:21:18;94908.38;;;3.13;100.00
10946;BME280;5525;42.648;23.368;2023-02-01T08:23:48;94914.19;;;3.30;100.00
10946;BME280;5525;42.648;23.368;2023-02-01T08:26:23;94912.25;;;3.46;97.77
10946;BME280;5525;42.648;23.368;2023-02-01T08:28:56;94903.75;;;3.34;96.08
10946;BME280;5525;42.648;23.368;2023-02-01T08:31:26;94915.44;;;3.48;96.22
10946;BME280;5525;42.648;23.368;2023-02-01T08:33:54;94906.03;;;3.66;93.58
10946;BME280;5525;42.648;23.368;2023-02-01T08:36:23;94880.75;;;3.43;92.45
10946;BME280;5525;42.648;23.368;2023-02-01T08:38:51;94915.78;;;3.85;92.25
10946;BME280;5525;42.648;23.368;2023-02-01T08:41:22;94901.72;;;3.70;92.41
10946;BME280;5525;42.648;23.368;2023-02-01T08:43:52;94866.44;;;3.78;90.35
10946;BME280;5525;42.648;23.368;2023-02-01T08:46:21;94891.66;;;4.00;88.62
10946;BME280;5525;42.648;23.368;2023-02-01T08:48:49;94904.91;;;4.15;86.85
10946;BME280;5525;42.648;23.368;2023-02-01T08:51:20;94907.38;;;4.45;85.81
10946;BME280;5525;42.648;23.368;2023-02-01T08:53:48;94908.25;;;4.64;83.88
10946;BME280;5525;42.648;23.368;2023-02-01T08:56:19;94916.56;;;4.96;82.28
10946;BME280;5525;42.648;23.368;2023-02-01T08:58:47;94902.09;;;4.97;81.20
10946;BME280;5525;42.648;23.368;2023-02-01T09:01:25;94888.25;;;4.90;80.86
10946;BME280;5525;42.648;23.368;2023-02-01T09:03:53;94895.78;;;5.59;76.92
10946;BME280;5525;42.648;23.368;2023-02-01T09:06:27;94902.22;;;5.77;74.45
10946;BME280;5525;42.648;23.368;2023-02-01T09:09:10;94912.50;;;5.93;72.61
10946;BME280;5525;42.648;23.368;2023-02-01T09:11:39;94912.50;;;5.70;73.84
10946;BME280;5525;42.648;23.368;2023-02-01T09:14:11;94919.25;;;5.67;74.50
10946;BME280;5525;42.648;23.368;2023-02-01T09:16:40;94916.34;;;5.40;73.63
10946;BME280;5525;42.648;23.368;2023-02-01T09:19:07;94895.53;;;4.85;74.92
10946;BME280;5525;42.648;23.368;2023-02-01T09:21:36;94929.38;;;4.66;78.67
10946;BME280;5525;42.648;23.368;2023-02-01T09:24:08;94915.69;;;4.72;77.57
10946;BME280;5525;42.648;23.368;2023-02-01T09:26:45;94897.44;;;4.51;79.04
10946;BME280;5525;42.648;23.368;2023-02-01T09:29:13;94904.63;;;4.84;77.43
10946;BME280;5525;42.648;23.368;2023-02-01T09:31:48;94904.22;;;5.24;75.34
10946;BME280;5525;42.648;23.368;2023-02-01T09:34:22;94896.97;;;5.48;75.19
10946;BME280;5525;42.648;23.368;2023-02-01T09:36:51;94917.91;;;5.65;74.58
10946;BME280;5525;42.648;23.368;2023-02-01T09:39:22;94912.56;;;5.65;73.01
10946;BME280;5525;42.648;23.368;2023-02-01T09:41:59;94902.22;;;6.00;72.89
10946;BME280;5525;42.648;23.368;2023-02-01T09:44:50;94910.34;;;6.14;71.33
10946;BME280;5525;42.648;23.368;2023-02-01T09:47:23;94894.41;;;6.04;69.77
10946;BME280;5525;42.648;23.368;2023-02-01T09:49:56;94896.69;;;6.29;70.04
10946;BME280;5525;42.648;23.368;2023-02-01T09:52:43;94913.16;;;6.59;68.24
10946;BME280;5525;42.648;23.368;2023-02-01T09:55:17;94895.88;;;6.65;66.48
10946;BME280;5525;42.648;23.368;2023-02-01T09:57:53;94890.22;;;5.74;68.08
10946;BME280;5525;42.648;23.368;2023-02-01T10:00:30;94888.06;;;5.76;70.19
10946;BME280;5525;42.648;23.368;2023-02-01T10:03:11;94886.78;;;6.11;68.95
10946;BME280;5525;42.648;23.368;2023-02-01T10:05:57;94883.78;;;6.49;66.98
10946;BME280;5525;42.648;23.368;2023-02-01T10:08:33;94875.69;;;6.36;65.88
10946;BME280;5525;42.648;23.368;2023-02-01T10:11:21;94867.31;;;6.05;65.68
10946;BME280;5525;42.648;23.368;2023-02-01T10:14:03;94877.34;;;5.76;66.89
10946;BME280;5525;42.648;23.368;2023-02-01T10:16:43;94848.19;;;5.51;67.13
10946;BME280;5525;42.648;23.368;2023-02-01T10:19:34;94840.88;;;5.57;67.98
10946;BME280;5525;42.648;23.368;2023-02-01T10:22:22;94865.66;;;5.49;69.15
10946;BME280;5525;42.648;23.368;2023-02-01T10:24:58;94830.59;;;5.45;68.71
10946;BME280;5525;42.648;23.368;2023-02-01T10:27:34;94831.44;;;5.64;69.32
10946;BME280;5525;42.648;23.368;2023-02-01T10:30:13;94839.19;;;5.66;68.92
10946;BME280;5525;42.648;23.368;2023-02-01T10:32:42;94836.22;;;5.67;70.10
10946;BME280;5525;42.648;23.368;2023-02-01T10:35:17;94806.38;;;5.13;69.35
10946;BME280;5525;42.648;23.368;2023-02-01T10:37:47;94816.97;;;5.42;69.92
10946;BME280;5525;42.648;23.368;2023-02-01T10:40:24;94825.38;;;5.54;68.86
10946;BME280;5525;42.648;23.368;2023-02-01T10:42:57;94832.66;;;5.53;69.25
10946;BME280;5525;42.648;23.368;2023-02-01T10:45:30;94817.75;;;5.66;68.04
10946;BME280;5525;42.648;23.368;2023-02-01T10:48:09;94822.41;;;5.37;67.40
10946;BME280;5525;42.648;23.368;2023-02-01T10:50:49;94787.75;;;5.27;68.33
10946;BME280;5525;42.648;23.368;2023-02-01T10:53:23;94812.56;;;5.93;67.29
10946;BME280;5525;42.648;23.368;2023-02-01T10:56:04;94840.31;;;5.78;66.96
10946;BME280;5525;42.648;23.368;2023-02-01T10:58:42;94809.25;;;5.59;67.47
10946;BME280;5525;42.648;23.368;2023-02-01T11:01:16;94843.91;;;5.32;67.32
10946;BME280;5525;42.648;23.368;2023-02-01T11:03:44;94819.78;;;5.13;68.28
10946;BME280;5525;42.648;23.368;2023-02-01T11:06:22;94831.53;;;5.12;68.23
10946;BME280;5525;42.648;23.368;2023-02-01T11:08:56;94835.63;;;5.04;68.66
10946;BME280;5525;42.648;23.368;2023-02-01T11:11:26;94835.31;;;5.11;69.77
10946;BME280;5525;42.648;23.368;2023-02-01T11:13:57;94829.50;;;5.46;69.62
10946;BME280;5525;42.648;23.368;2023-02-01T11:16:40;94830.84;;;6.04;66.45
10946;BME280;5525;42.648;23.368;2023-02-01T11:19:14;94833.47;;;6.73;65.68
10946;BME280;5525;42.648;23.368;2023-02-01T11:21:44;94828.91;;;6.10;62.36
10946;BME280;5525;42.648;23.368;2023-02-01T11:24:21;94826.88;;;6.02;64.00
10946;BME280;5525;42.648;23.368;2023-02-01T11:26:50;94817.91;;;5.93;63.59
10946;BME280;5525;42.648;23.368;2023-02-01T11:29:22;94802.16;;;5.68;65.00
10946;BME280;5525;42.648;23.368;2023-02-01T11:31:58;94794.31;;;5.95;65.45
10946;BME280;5525;42.648;23.368;2023-02-01T11:34:38;94788.78;;;6.05;65.58
10946;BME280;5525;42.648;23.368;2023-02-01T11:37:17;94810.16;;;6.10;65.43
10946;BME280;5525;42.648;23.368;2023-02-01T11:39:53;94800.31;;;6.05;63.73
10946;BME280;5525;42.648;23.368;2023-02-01T11:42:22;94808.59;;;5.90;64.65
10946;BME280;5525;42.648;23.368;2023-02-01T11:44:50;94807.47;;;6.10;64.69
10946;BME280;5525;42.648;23.368;2023-02-01T11:47:23;94800.63;;;6.17;65.14
10946;BME280;5525;42.648;23.368;2023-02-01T11:49:52;94783.75;;;6.17;63.99
10946;BME280;5525;42.648;23.368;2023-02-01T11:52:37;94783.34;;;6.10;64.17
10946;BME280;5525;42.648;23.368;2023-02-01T11:55:22;94774.38;;;6.01;64.19
10946;BME280;5525;42.648;23.368;2023-02-01T11:58:00;94776.75;;;6.02;64.01
10946;BME280;5525;42.648;23.368;2023-02-01T12:00:52;94775.16;;;6.01;64.11
10946;BME280;5525;42.648;23.368;2023-02-01T12:03:51;94767.28;;;6.23;64.70
10946;BME280;5525;42.648;23.368;2023-02-01T12:06:28;94760.09;;;6.05;64.35
10946;BME280;5525;42.648;23.368;2023-02-01T12:09:37;94768.47;;;6.17;63.57
10946;BME280;5525;42.648;23.368;2023-02-01T12:12:17;94765.31;;;6.29;64.64
10946;BME280;5525;42.648;23.368;2023-02-01T12:15:08;94769.09;;;6.28;63.99
10946;BME280;5525;42.648;23.368;2023-02-01T12:17:50;94766.97;;;6.11;63.87
10946;BME280;5525;42.648;23.368;2023-02-01T12:20:34;94728.09;;;5.95;64.42
10946;BME280;5525;42.648;23.368;2023-02-01T12:23:21;94755.50;;;6.06;63.90
10946;BME280;5525;42.648;23.368;2023-02-01T12:26:07;94761.06;;;6.28;64.97
10946;BME280;5525;42.648;23.368;2023-02-01T12:31:51;94757.91;;;6.39;63.77
10946;BME280;5525;42.648;23.368;2023-02-01T12:34:37;94761.34;;;6.26;63.61
10946;BME280;5525;42.648;23.368;2023-02-01T12:37:14;94743.69;;;6.25;64.64
10946;BME280;5525;42.648;23.368;2023-02-01T12:39:58;94751.69;;;6.57;65.43
10946;BME280;5525;42.648;23.368;2023-02-01T12:42:36;94765.84;;;8.10;60.72
10946;BME280;5525;42.648;23.368;2023-02-01T12:45:12;94751.91;;;9.22;54.06
10946;BME280;5525;42.648;23.368;2023-02-01T12:47:47;94757.34;;;9.48;51.52
10946;BME280;5525;42.648;23.368;2023-02-01T12:50:20;94756.44;;;9.95;50.46
10946;BME280;5525;42.648;23.368;2023-02-01T12:52:52;94758.53;;;10.95;48.07
10946;BME280;5525;42.648;23.368;2023-02-01T12:55:22;94744.03;;;11.00;46.42
10946;BME280;5525;42.648;23.368;2023-02-01T12:57:54;94766.06;;;11.48;46.20
10946;BME280;5525;42.648;23.368;2023-02-01T13:00:29;94751.06;;;10.92;46.46
10946;BME280;5525;42.648;23.368;2023-02-01T13:03:13;94761.22;;;11.04;46.01
10946;BME280;5525;42.648;23.368;2023-02-01T13:05:51;94725.56;;;10.64;45.30
10946;BME280;5525;42.648;23.368;2023-02-01T13:08:36;94768.00;;;9.78;47.25
10946;BME280;5525;42.648;23.368;2023-02-01T13:11:14;94755.78;;;9.64;47.45
10946;BME280;5525;42.648;23.368;2023-02-01T13:13:56;94760.06;;;9.73;47.24
10946;BME280;5525;42.648;23.368;2023-02-01T13:16:29;94755.66;;;9.77;47.28
10946;BME280;5525;42.648;23.368;2023-02-01T13:19:06;94764.69;;;9.17;47.74
10946;BME280;5525;42.648;23.368;2023-02-01T13:21:40;94750.72;;;9.88;46.50
10946;BME280;5525;42.648;23.368;2023-02-01T13:24:20;94739.06;;;9.19;46.13
10946;BME280;5525;42.648;23.368;2023-02-01T13:26:54;94761.31;;;8.94;46.38
10946;BME280;5525;42.648;23.368;2023-02-01T13:29:33;94751.16;;;8.91;46.95
10946;BME280;5525;42.648;23.368;2023-02-01T13:32:33;94748.94;;;8.10;48.21
10946;BME280;5525;42.648;23.368;2023-02-01T13:35:25;94766.34;;;8.12;48.66
10946;BME280;5525;42.648;23.368;2023-02-01T13:38:24;94758.50;;;7.45;50.25
10946;BME280;5525;42.648;23.368;2023-02-01T13:41:11;94752.72;;;7.51;50.90
10946;BME280;5525;42.648;23.368;2023-02-01T13:43:48;94713.47;;;7.28;51.53
10946;BME280;5525;42.648;23.368;2023-02-01T13:46:19;94725.25;;;7.54;49.68
10946;BME280;5525;42.648;23.368;2023-02-01T13:48:50;94747.97;;;7.35;50.06
10946;BME280;5525;42.648;23.368;2023-02-01T13:51:34;94751.38;;;7.27;50.27